createdAt,value
2017-08-10T00:00:12.723Z,93.6
2017-08-10T00:01:20.201Z,93.6
2017-08-10T00:02:27.657Z,92.5
2017-08-10T00:03:35.142Z,92.1
2017-08-10T00:04:42.624Z,92.7
2017-08-10T00:05:50.106Z,92.4
2017-08-10T00:06:57.819Z,92.9
2017-08-10T00:08:05.603Z,92.7
2017-08-10T00:09:12.757Z,92.4
2017-08-10T00:10:19.908Z,92.4
2017-08-10T00:11:27.404Z,92.8
2017-08-10T00:12:34.886Z,92.1
2017-08-10T00:13:42.335Z,92.2
2017-08-10T00:14:49.494Z,92.2
2017-08-10T00:15:56.977Z,92.6
2017-08-10T00:17:04.463Z,92.6
2017-08-10T00:18:11.939Z,93.6
2017-08-10T00:19:19.719Z,93.9
2017-08-10T00:20:27.197Z,94.4
2017-08-10T00:21:34.676Z,93.9
2017-08-10T00:22:41.833Z,93.6
2017-08-10T00:23:49.313Z,94.4
2017-08-10T00:24:56.776Z,93.8
2017-08-10T00:26:04.255Z,93.6
2017-08-10T00:27:11.756Z,93.7
2017-08-10T00:28:19.234Z,93.1
2017-08-10T00:29:26.718Z,93.4
2017-08-10T00:30:34.548Z,92.9
2017-08-10T00:31:41.698Z,92.8
2017-08-10T00:32:49.177Z,92.8
2017-08-10T00:33:56.658Z,92.3
2017-08-10T00:35:04.137Z,91.6
2017-08-10T00:36:11.924Z,91.4
2017-08-10T00:37:19.408Z,92.4
2017-08-10T00:38:26.242Z,93.7
2017-08-10T00:39:33.724Z,93.4
2017-08-10T00:40:40.874Z,93.8
2017-08-10T00:41:48.650Z,94.1
2017-08-10T00:42:55.824Z,94.9
2017-08-10T00:44:03.320Z,94.4
2017-08-10T00:45:10.822Z,94.3
2017-08-10T00:46:18.304Z,95
2017-08-10T00:47:26.107Z,95.1
2017-08-10T00:48:33.587Z,95.1
2017-08-10T00:49:41.068Z,95.6
2017-08-10T00:50:48.546Z,95.7
2017-08-10T00:51:56.254Z,95.2
2017-08-10T00:53:04.030Z,94.9
2017-08-10T00:54:11.510Z,94
2017-08-10T00:55:18.988Z,94.2
2017-08-10T00:56:26.468Z,94.6
2017-08-10T00:57:33.941Z,94.1
2017-08-10T00:58:41.719Z,92.8
2017-08-10T00:59:49.198Z,94.4
2017-08-10T01:00:56.678Z,93
2017-08-10T01:02:04.158Z,93.8
2017-08-10T01:03:11.642Z,94
2017-08-10T01:04:19.474Z,94.8
2017-08-10T01:05:26.945Z,94.2
2017-08-10T01:06:34.425Z,94.4
2017-08-10T01:07:42.127Z,94.8
2017-08-10T01:08:49.609Z,94.2
2017-08-10T01:09:57.107Z,94
2017-08-10T01:11:04.257Z,93.1
2017-08-10T01:12:11.412Z,94.3
2017-08-10T01:13:18.892Z,94.2
2017-08-10T01:14:26.039Z,94
2017-08-10T01:15:33.848Z,93.7
2017-08-10T01:16:41.321Z,93.9
2017-08-10T01:17:48.799Z,93.6
2017-08-10T01:18:55.946Z,94
2017-08-10T01:20:03.429Z,93.4
2017-08-10T01:21:11.212Z,94.1
2017-08-10T01:22:18.886Z,93.7
2017-08-10T01:23:26.395Z,93.3
2017-08-10T01:24:33.880Z,93.3
2017-08-10T01:25:41.031Z,94.1
2017-08-10T01:26:48.814Z,93.7
2017-08-10T01:27:56.302Z,93.7
2017-08-10T01:29:03.773Z,93.2
2017-08-10T01:30:10.923Z,93
2017-08-10T01:31:18.407Z,92.6
2017-08-10T01:32:26.184Z,92.9
2017-08-10T01:33:33.330Z,92.5
2017-08-10T01:34:40.813Z,92.5
2017-08-10T01:35:48.290Z,92.9
2017-08-10T01:36:55.778Z,92.9
2017-08-10T01:38:03.571Z,93.4
2017-08-10T01:39:11.520Z,94.5
2017-08-10T01:40:18.998Z,94.8
2017-08-10T01:41:26.478Z,95.2
2017-08-10T01:42:33.961Z,95.5
2017-08-10T01:43:41.744Z,95.7
2017-08-10T01:44:49.259Z,95.9
2017-08-10T01:45:56.419Z,95.9
2017-08-10T01:47:03.913Z,95.4
2017-08-10T01:48:11.397Z,94.7
2017-08-10T01:49:19.175Z,94.7
2017-08-10T01:50:26.663Z,93.9
2017-08-10T01:51:35.725Z,94.2
2017-08-10T01:52:43.194Z,94.2
2017-08-10T01:53:50.010Z,93.8
2017-08-10T01:54:57.799Z,93.9
2017-08-10T01:56:05.286Z,93.8
2017-08-10T01:57:12.762Z,93.9
2017-08-10T01:58:19.917Z,94.3
2017-08-10T01:59:27.393Z,94.4
2017-08-10T02:00:35.168Z,94.8
2017-08-10T02:01:42.665Z,95
2017-08-10T02:02:50.145Z,95.5
2017-08-10T02:03:57.295Z,96.6
2017-08-10T02:05:05.735Z,96.1
2017-08-10T02:06:13.531Z,95.6
2017-08-10T02:07:20.692Z,95.6
2017-08-10T02:08:28.179Z,95.7
2017-08-10T02:09:35.664Z,95.5
2017-08-10T02:10:42.815Z,95.4
2017-08-10T02:11:50.600Z,95
2017-08-10T02:12:57.743Z,94.8
2017-08-10T02:14:05.225Z,95
2017-08-10T02:15:12.711Z,94.8
2017-08-10T02:16:19.860Z,95
2017-08-10T02:17:27.647Z,95.7
2017-08-10T02:18:35.180Z,95.6
2017-08-10T02:19:42.337Z,95
2017-08-10T02:20:49.815Z,94.9
2017-08-10T02:21:57.303Z,95.1
2017-08-10T02:23:04.417Z,93.9
2017-08-10T02:24:11.895Z,95.3
2017-08-10T02:25:19.376Z,95
2017-08-10T02:26:26.864Z,95.6
2017-08-10T02:27:33.688Z,95.8
2017-08-10T02:28:41.493Z,95.8
2017-08-10T02:29:48.974Z,95.4
2017-08-10T02:30:56.481Z,95.4
2017-08-10T02:32:03.625Z,95.2
2017-08-10T02:33:10.771Z,94.4
2017-08-10T02:34:18.549Z,93.9
2017-08-10T02:35:26.033Z,94.7
2017-08-10T02:36:33.514Z,94.9
2017-08-10T02:37:40.999Z,94.9
2017-08-10T02:38:48.478Z,95.3
2017-08-10T02:39:55.936Z,94.8
2017-08-10T02:41:03.433Z,94.5
2017-08-10T02:42:10.949Z,94.5
2017-08-10T02:43:18.458Z,94.1
2017-08-10T02:44:25.935Z,95.1
2017-08-10T02:45:33.719Z,95.6
2017-08-10T02:46:41.202Z,95.9
2017-08-10T02:47:48.685Z,96
2017-08-10T02:48:55.833Z,96.4
2017-08-10T02:50:03.320Z,96.1
2017-08-10T02:51:10.773Z,96.7
2017-08-10T02:52:18.251Z,96.8
2017-08-10T02:53:25.733Z,96.3
2017-08-10T02:54:33.207Z,95.5
2017-08-10T02:55:40.691Z,95.9
2017-08-10T02:56:48.726Z,95.6
2017-08-10T02:57:56.214Z,95.8
2017-08-10T02:59:03.691Z,95.8
2017-08-10T03:00:11.177Z,95.7
2017-08-10T03:01:18.332Z,96
2017-08-10T03:02:26.110Z,96.5
2017-08-10T03:03:33.590Z,96.7
2017-08-10T03:04:41.071Z,96.4
2017-08-10T03:05:48.545Z,96.7
2017-08-10T03:06:56.030Z,97
2017-08-10T03:08:03.807Z,96.7
2017-08-10T03:09:11.285Z,96.5
2017-08-10T03:10:18.769Z,96.1
2017-08-10T03:11:26.254Z,96.2
2017-08-10T03:12:33.738Z,95.6
2017-08-10T03:13:41.580Z,95.6
2017-08-10T03:14:49.083Z,95.5
2017-08-10T03:15:56.597Z,96
2017-08-10T03:17:04.077Z,96.1
2017-08-10T03:18:11.554Z,96.3
2017-08-10T03:19:18.678Z,96.1
2017-08-10T03:20:26.170Z,95.8
2017-08-10T03:21:33.329Z,95
2017-08-10T03:22:40.800Z,94
2017-08-10T03:23:48.273Z,93.8
2017-08-10T03:24:55.733Z,95.4
2017-08-10T03:26:03.215Z,94.9
2017-08-10T03:27:10.701Z,95
2017-08-10T03:28:18.175Z,94.5
2017-08-10T03:29:25.319Z,94.4
2017-08-10T03:30:32.825Z,94.4
2017-08-10T03:31:40.315Z,94.9
2017-08-10T03:32:47.797Z,95.6
2017-08-10T03:33:55.297Z,96.1
2017-08-10T03:35:02.452Z,95.2
2017-08-10T03:36:09.931Z,96.5
2017-08-10T03:37:17.725Z,96.3
2017-08-10T03:38:24.868Z,96.4
2017-08-10T03:39:32.344Z,96.2
2017-08-10T03:40:39.485Z,96.1
2017-08-10T03:41:46.970Z,96.2
2017-08-10T03:42:54.753Z,96
2017-08-10T03:44:01.914Z,96.3
2017-08-10T03:45:09.072Z,96.3
2017-08-10T03:46:16.226Z,96.5
2017-08-10T03:47:23.706Z,97.1
2017-08-10T03:48:31.664Z,96.7
2017-08-10T03:49:39.138Z,97.2
2017-08-10T03:50:46.286Z,97.4
2017-08-10T03:51:53.762Z,97.4
2017-08-10T03:53:00.926Z,97.7
2017-08-10T03:54:08.402Z,97.3
2017-08-10T03:55:15.880Z,97.3
2017-08-10T03:56:23.361Z,96.8
2017-08-10T03:57:30.844Z,97.2
2017-08-10T03:58:37.996Z,96.7
2017-08-10T03:59:45.773Z,96.4
2017-08-10T04:00:53.251Z,96.3
2017-08-10T04:02:00.727Z,95.6
2017-08-10T04:03:08.213Z,96.5
2017-08-10T04:04:15.693Z,95.9
2017-08-10T04:05:23.472Z,94.8
2017-08-10T04:06:30.628Z,94.6
2017-08-10T04:07:38.108Z,94.6
2017-08-10T04:08:45.611Z,95.6
2017-08-10T04:09:53.092Z,95.4
2017-08-10T04:11:00.878Z,96
2017-08-10T04:12:08.038Z,95.6
2017-08-10T04:13:15.516Z,95.5
2017-08-10T04:14:23.007Z,96.4
2017-08-10T04:15:30.489Z,96.2
2017-08-10T04:16:37.966Z,96
2017-08-10T04:17:45.460Z,95.7
2017-08-10T04:18:52.939Z,96.1
2017-08-10T04:20:00.424Z,96.5
2017-08-10T04:21:07.578Z,96.7
2017-08-10T04:22:15.413Z,96
2017-08-10T04:23:22.885Z,97.3
2017-08-10T04:24:30.369Z,97.5
2017-08-10T04:25:37.856Z,97.5
2017-08-10T04:26:45.332Z,97.3
2017-08-10T04:27:53.161Z,97.3
2017-08-10T04:29:00.314Z,97.2
2017-08-10T04:30:07.794Z,97.1
2017-08-10T04:31:15.274Z,96.6
2017-08-10T04:32:22.951Z,96.7
2017-08-10T04:33:30.437Z,96.3
2017-08-10T04:34:37.926Z,96.4
2017-08-10T04:35:45.433Z,96.3
2017-08-10T04:36:53.211Z,96.6
2017-08-10T04:38:00.706Z,96.7
2017-08-10T04:39:08.187Z,97.3
2017-08-10T04:40:15.686Z,97.3
2017-08-10T04:41:23.170Z,97.7
2017-08-10T04:42:30.955Z,98
2017-08-10T04:43:38.467Z,97.4
2017-08-10T04:44:45.623Z,97.3
2017-08-10T04:45:53.118Z,97.8
2017-08-10T04:47:00.263Z,97.6
2017-08-10T04:48:07.762Z,97.5
2017-08-10T04:49:15.242Z,97.4
2017-08-10T04:50:22.722Z,97.4
2017-08-10T04:51:30.427Z,97.5
2017-08-10T04:52:38.133Z,97.3
2017-08-10T04:53:45.916Z,97.3
2017-08-10T04:54:53.406Z,97.3
2017-08-10T04:56:00.906Z,97.2
2017-08-10T04:57:08.387Z,97.4
2017-08-10T04:58:15.532Z,97.2
2017-08-10T04:59:23.011Z,97.4
2017-08-10T05:00:30.498Z,97.3
2017-08-10T05:01:37.644Z,97.3
2017-08-10T05:02:45.122Z,97.1
2017-08-10T05:03:53.167Z,96.7
2017-08-10T05:05:00.869Z,97
2017-08-10T05:06:08.353Z,97.2
2017-08-10T05:07:15.834Z,97.2
2017-08-10T05:08:23.319Z,97
2017-08-10T05:09:31.126Z,97.2
2017-08-10T05:10:38.610Z,97.3
2017-08-10T05:11:46.094Z,96.7
2017-08-10T05:12:53.274Z,96.5
2017-08-10T05:14:00.755Z,96.5
2017-08-10T05:15:08.542Z,96.8
2017-08-10T05:16:16.027Z,96.7
2017-08-10T05:17:23.193Z,96.4
2017-08-10T05:18:30.665Z,96.6
2017-08-10T05:19:38.145Z,96.5
2017-08-10T05:20:45.624Z,96.4
2017-08-10T05:21:53.099Z,95.5
2017-08-10T05:23:00.580Z,96.5
2017-08-10T05:24:08.068Z,96.8
2017-08-10T05:25:15.546Z,96.3
2017-08-10T05:26:23.325Z,96.6
2017-08-10T05:27:30.801Z,96.2
2017-08-10T05:28:38.283Z,96.1
2017-08-10T05:29:45.434Z,95.2
2017-08-10T05:30:52.584Z,95.1
2017-08-10T05:32:00.421Z,94.2
2017-08-10T05:33:07.576Z,94.3
2017-08-10T05:34:15.051Z,94.3
2017-08-10T05:35:22.536Z,94.3
2017-08-10T05:36:30.014Z,94.6
2017-08-10T05:37:37.851Z,94.7
2017-08-10T05:38:45.339Z,94.6
2017-08-10T05:39:52.498Z,95.3
2017-08-10T05:40:59.982Z,94.6
2017-08-10T05:42:07.481Z,94.8
2017-08-10T05:43:14.964Z,94.8
2017-08-10T05:44:22.472Z,94.9
2017-08-10T05:45:30.255Z,94.8
2017-08-10T05:46:37.739Z,95.6
2017-08-10T05:47:45.230Z,95.7
2017-08-10T05:48:52.702Z,95.6
2017-08-10T05:50:00.185Z,95.5
2017-08-10T05:51:07.637Z,95.3
2017-08-10T05:52:15.117Z,95.1
2017-08-10T05:53:22.603Z,95.2
2017-08-10T05:54:30.086Z,95
2017-08-10T05:55:37.564Z,94.9
2017-08-10T05:56:45.344Z,94.2
2017-08-10T05:57:52.824Z,95
2017-08-10T05:59:00.304Z,95
2017-08-10T06:00:07.785Z,94.7
2017-08-10T06:01:15.275Z,94.7
2017-08-10T06:02:22.777Z,94.7
2017-08-10T06:03:29.921Z,94.3
2017-08-10T06:04:37.429Z,94.7
2017-08-10T06:05:44.914Z,93.6
2017-08-10T06:06:52.404Z,94.5
2017-08-10T06:08:00.180Z,93.8
2017-08-10T06:09:07.660Z,94.4
2017-08-10T06:10:15.147Z,94.6
2017-08-10T06:11:22.626Z,94.6
2017-08-10T06:12:30.114Z,95
2017-08-10T06:13:37.619Z,95
2017-08-10T06:14:44.786Z,95.3
2017-08-10T06:15:52.268Z,94.8
2017-08-10T06:16:59.747Z,94.5
2017-08-10T06:18:07.170Z,94.8
2017-08-10T06:19:14.953Z,94.8
2017-08-10T06:20:22.102Z,94.4
2017-08-10T06:21:29.779Z,94.8
2017-08-10T06:22:37.259Z,94.6
2017-08-10T06:23:44.740Z,94.6
2017-08-10T06:24:52.226Z,94.1
2017-08-10T06:25:59.713Z,94.5
2017-08-10T06:27:07.493Z,94.1
2017-08-10T06:28:14.978Z,94.2
2017-08-10T06:29:22.461Z,94.6
2017-08-10T06:30:29.934Z,94.5
2017-08-10T06:31:37.414Z,93.4
2017-08-10T06:32:45.197Z,94.3
2017-08-10T06:33:52.466Z,93.9
2017-08-10T06:34:59.943Z,93.8
2017-08-10T06:36:07.426Z,93.7
2017-08-10T06:37:14.911Z,93.8
2017-08-10T06:38:22.697Z,93.3
2017-08-10T06:39:29.845Z,93.7
2017-08-10T06:40:37.326Z,93.4
2017-08-10T06:41:44.808Z,93.1
2017-08-10T06:42:52.302Z,93.7
2017-08-10T06:44:00.079Z,93.4
2017-08-10T06:45:07.559Z,93.5
2017-08-10T06:46:15.047Z,93.6
2017-08-10T06:47:22.528Z,92.8
2017-08-10T06:48:30.014Z,92.7
2017-08-10T06:49:37.156Z,93.1
2017-08-10T06:50:44.630Z,92.9
2017-08-10T06:51:52.113Z,92.9
2017-08-10T06:52:59.266Z,93.2
2017-08-10T06:54:06.750Z,93.6
2017-08-10T06:55:14.260Z,93.6
2017-08-10T06:56:21.741Z,93.2
2017-08-10T06:57:28.891Z,93.3
2017-08-10T06:58:36.372Z,93.3
2017-08-10T06:59:44.219Z,93.3
2017-08-10T07:00:51.699Z,93.5
2017-08-10T07:01:59.177Z,93.4
2017-08-10T07:03:06.660Z,94
2017-08-10T07:04:14.141Z,94
2017-08-10T07:05:21.967Z,94.3
2017-08-10T07:06:29.452Z,94.2
2017-08-10T07:07:36.931Z,93.6
2017-08-10T07:08:44.418Z,93.4
2017-08-10T07:09:51.909Z,93.5
2017-08-10T07:10:59.743Z,93.7
2017-08-10T07:12:06.896Z,93.7
2017-08-10T07:13:14.371Z,93.6
2017-08-10T07:14:21.858Z,93.8
2017-08-10T07:15:29.010Z,93.5
2017-08-10T07:16:36.787Z,93.4
2017-08-10T07:17:44.266Z,93.7
2017-08-10T07:18:51.744Z,93.4
2017-08-10T07:19:58.888Z,93.1
2017-08-10T07:21:06.368Z,93
2017-08-10T07:22:14.152Z,93.5
2017-08-10T07:23:21.630Z,93.5
2017-08-10T07:24:29.109Z,93.7
2017-08-10T07:25:36.590Z,94.1
2017-08-10T07:26:43.739Z,94
2017-08-10T07:27:51.520Z,93.4
2017-08-10T07:28:59.000Z,93.9
2017-08-10T07:30:06.479Z,93.7
2017-08-10T07:31:13.977Z,93.3
2017-08-10T07:32:21.464Z,93.4
2017-08-10T07:33:28.948Z,93.5
2017-08-10T07:34:36.102Z,93.6
2017-08-10T07:35:43.595Z,93.5
2017-08-10T07:36:51.380Z,93.6
2017-08-10T07:37:58.569Z,93.3
2017-08-10T07:39:06.041Z,93.7
2017-08-10T07:40:13.546Z,93.8
2017-08-10T07:41:21.028Z,93.7
2017-08-10T07:42:28.481Z,93.5
2017-08-10T07:43:35.630Z,93
2017-08-10T07:44:43.108Z,93
2017-08-10T07:45:50.588Z,92.8
2017-08-10T07:46:58.067Z,93
2017-08-10T07:48:05.519Z,92.9
2017-08-10T07:49:13.010Z,93
2017-08-10T07:50:20.688Z,93.1
2017-08-10T07:51:28.165Z,93.4
2017-08-10T07:52:35.651Z,93.8
2017-08-10T07:53:42.795Z,93.7
2017-08-10T07:54:50.282Z,93.9
2017-08-10T07:55:57.764Z,93.5
2017-08-10T07:57:04.917Z,93.7
2017-08-10T07:58:12.407Z,94
2017-08-10T07:59:20.193Z,94
2017-08-10T08:00:27.678Z,94.2
2017-08-10T08:01:34.823Z,94.4
2017-08-10T08:02:42.301Z,94
2017-08-10T08:03:49.752Z,94.3
2017-08-10T08:04:57.245Z,94.2
2017-08-10T08:06:04.732Z,93.9
2017-08-10T08:07:12.214Z,93.9
2017-08-10T08:08:19.696Z,94.1
2017-08-10T08:09:27.490Z,94.1
2017-08-10T08:10:34.977Z,93.9
2017-08-10T08:11:42.457Z,93.5
2017-08-10T08:12:49.930Z,93.8
2017-08-10T08:13:57.403Z,93.7
2017-08-10T08:15:05.180Z,93.5
2017-08-10T08:16:12.663Z,93.9
2017-08-10T08:17:19.826Z,93.8
2017-08-10T08:18:27.326Z,93.3
2017-08-10T08:19:34.132Z,93.1
2017-08-10T08:20:41.974Z,92.7
2017-08-10T08:21:49.467Z,93
2017-08-10T08:22:56.992Z,92.9
2017-08-10T08:24:04.474Z,93.3
2017-08-10T08:25:11.953Z,93.6
2017-08-10T08:26:19.732Z,93.4
2017-08-10T08:27:27.215Z,93.9
2017-08-10T08:28:34.693Z,92.9
2017-08-10T08:29:42.181Z,93.3
2017-08-10T08:30:49.671Z,93.4
2017-08-10T08:31:57.129Z,93.1
2017-08-10T08:33:04.614Z,93.1
2017-08-10T08:34:12.095Z,93.1
2017-08-10T08:35:19.579Z,93.8
2017-08-10T08:36:27.064Z,93.7
2017-08-10T08:37:34.521Z,93.4
2017-08-10T08:38:41.671Z,93.6
2017-08-10T08:39:49.144Z,94.2
2017-08-10T08:40:56.300Z,93.8
2017-08-10T08:42:03.779Z,93.7
2017-08-10T08:43:11.608Z,93.4
2017-08-10T08:44:19.088Z,93
2017-08-10T08:45:26.590Z,93.3
2017-08-10T08:46:34.066Z,93.3
2017-08-10T08:47:41.551Z,93.5
2017-08-10T08:48:49.389Z,93.2
2017-08-10T08:49:56.874Z,92.9
2017-08-10T08:51:04.356Z,93.1
2017-08-10T08:52:11.840Z,93.1
2017-08-10T08:53:19.331Z,93.4
2017-08-10T08:54:26.505Z,93.8
2017-08-10T08:55:33.985Z,92.7
2017-08-10T08:56:41.468Z,92.4
2017-08-10T08:57:48.963Z,92.4
2017-08-10T08:58:56.445Z,92.4
2017-08-10T09:00:04.542Z,92.3
2017-08-10T09:01:12.078Z,92.2
2017-08-10T09:02:19.563Z,92.1
2017-08-10T09:03:27.048Z,91.9
2017-08-10T09:04:34.530Z,92.1
2017-08-10T09:05:41.982Z,91.8
2017-08-10T09:06:49.537Z,91.9
2017-08-10T09:07:57.014Z,91.9
2017-08-10T09:09:04.502Z,91.9
2017-08-10T09:10:11.981Z,91.7
2017-08-10T09:11:19.809Z,91.6
2017-08-10T09:12:27.288Z,91.9
2017-08-10T09:13:34.771Z,91.3
2017-08-10T09:14:41.927Z,91.2
2017-08-10T09:15:49.405Z,91.3
2017-08-10T09:16:56.847Z,91.7
2017-08-10T09:18:03.999Z,90.9
2017-08-10T09:19:11.512Z,91.4
2017-08-10T09:20:18.994Z,90.6
2017-08-10T09:21:26.480Z,91.4
2017-08-10T09:22:34.272Z,91.3
2017-08-10T09:23:41.763Z,91.3
2017-08-10T09:24:49.235Z,91
2017-08-10T09:25:56.716Z,90.8
2017-08-10T09:27:04.199Z,90.5
2017-08-10T09:28:12.026Z,90.5
2017-08-10T09:29:19.506Z,90.4
2017-08-10T09:30:26.993Z,90.8
2017-08-10T09:31:34.467Z,90.9
2017-08-10T09:32:41.940Z,90.6
2017-08-10T09:33:49.391Z,91.2
2017-08-10T09:34:56.886Z,90.8
2017-08-10T09:36:04.030Z,89.8
2017-08-10T09:37:11.513Z,90.4
2017-08-10T09:38:18.995Z,90.8
2017-08-10T09:39:26.868Z,90.9
2017-08-10T09:40:34.373Z,90.9
2017-08-10T09:41:41.852Z,91.3
2017-08-10T09:42:49.342Z,90.7
2017-08-10T09:43:56.827Z,90.5
2017-08-10T09:45:04.609Z,90.1
2017-08-10T09:46:12.085Z,90.4
2017-08-10T09:47:19.569Z,90.4
2017-08-10T09:48:27.060Z,90.9
2017-08-10T09:49:34.570Z,90.8
2017-08-10T09:50:42.346Z,90.1
2017-08-10T09:51:49.824Z,90.6
2017-08-10T09:52:57.307Z,90.4
2017-08-10T09:54:04.458Z,90.8
2017-08-10T09:55:11.612Z,90.8
2017-08-10T09:56:19.391Z,90.1
2017-08-10T09:57:26.876Z,90.6
2017-08-10T09:58:34.358Z,90.2
2017-08-10T09:59:41.845Z,90.6
2017-08-10T10:00:49.002Z,90.6
2017-08-10T10:01:56.804Z,90.7
2017-08-10T10:03:04.302Z,90.6
2017-08-10T10:04:11.458Z,90.3
2017-08-10T10:05:18.936Z,90.6
2017-08-10T10:06:26.420Z,90.8
2017-08-10T10:07:33.869Z,91
2017-08-10T10:08:41.020Z,90.6
2017-08-10T10:09:48.498Z,90.8
2017-08-10T10:10:55.982Z,91.1
2017-08-10T10:12:03.462Z,91
2017-08-10T10:13:11.244Z,91
2017-08-10T10:14:18.397Z,91.6
2017-08-10T10:15:25.545Z,91.9
2017-08-10T10:16:33.035Z,91.3
2017-08-10T10:17:40.186Z,91
2017-08-10T10:18:47.973Z,90.8
2017-08-10T10:19:55.136Z,90.1
2017-08-10T10:21:02.304Z,90.6
2017-08-10T10:22:09.785Z,91.1
2017-08-10T10:23:17.280Z,90.7
2017-08-10T10:24:25.060Z,90.5
2017-08-10T10:25:32.544Z,90.1
2017-08-10T10:26:40.027Z,90
2017-08-10T10:27:47.510Z,89.8
2017-08-10T10:28:54.661Z,90.1
2017-08-10T10:30:02.445Z,90
2017-08-10T10:31:09.924Z,90.4
2017-08-10T10:32:17.404Z,90.2
2017-08-10T10:33:24.562Z,90.3
2017-08-10T10:34:32.057Z,90.1
2017-08-10T10:35:39.843Z,89.7
2017-08-10T10:36:47.347Z,90.2
2017-08-10T10:37:54.497Z,90.6
2017-08-10T10:39:02.013Z,89.8
2017-08-10T10:40:09.168Z,90.2
2017-08-10T10:41:16.944Z,90.7
2017-08-10T10:42:24.116Z,90.1
2017-08-10T10:43:31.595Z,89.9
2017-08-10T10:44:39.076Z,89.5
2017-08-10T10:45:46.791Z,89.5
2017-08-10T10:46:54.568Z,89.9
2017-08-10T10:48:02.050Z,89.7
2017-08-10T10:49:09.532Z,89.4
2017-08-10T10:50:17.019Z,90
2017-08-10T10:51:24.497Z,90.2
2017-08-10T10:52:32.507Z,89.6
2017-08-10T10:53:39.986Z,89.4
2017-08-10T10:54:47.511Z,90
2017-08-10T10:55:55.018Z,89.7
2017-08-10T10:57:02.512Z,88.8
2017-08-10T10:58:10.297Z,90.1
2017-08-10T10:59:17.796Z,90
2017-08-10T11:00:25.272Z,90
2017-08-10T11:01:32.756Z,89.5
2017-08-10T11:02:40.237Z,88.5
2017-08-10T11:03:48.071Z,89.5
2017-08-10T11:04:55.572Z,88.7
2017-08-10T11:06:03.047Z,87.9
2017-08-10T11:07:10.529Z,88.9
2017-08-10T11:08:17.666Z,89.3
2017-08-10T11:09:25.511Z,89.5
2017-08-10T11:10:32.990Z,88
2017-08-10T11:11:40.471Z,87.9
2017-08-10T11:12:47.954Z,88.1
2017-08-10T11:13:55.442Z,88.3
2017-08-10T11:15:03.219Z,89.2
2017-08-10T11:16:10.735Z,88.1
2017-08-10T11:17:18.218Z,89
2017-08-10T11:18:25.699Z,88.3
2017-08-10T11:19:33.180Z,87.7
2017-08-10T11:20:40.662Z,88.4
2017-08-10T11:21:48.157Z,89
2017-08-10T11:22:55.647Z,88.9
2017-08-10T11:24:02.477Z,87.5
2017-08-10T11:25:09.962Z,88.1
2017-08-10T11:26:17.796Z,88.3
2017-08-10T11:27:25.288Z,89
2017-08-10T11:28:32.771Z,88.7
2017-08-10T11:29:40.282Z,88.5
2017-08-10T11:30:47.771Z,88.1
2017-08-10T11:31:55.548Z,89.2
2017-08-10T11:33:03.034Z,89.7
2017-08-10T11:34:10.199Z,90
2017-08-10T11:35:17.686Z,88.8
2017-08-10T11:36:25.166Z,88.7
2017-08-10T11:37:32.630Z,89.2
2017-08-10T11:38:40.127Z,88.6
2017-08-10T11:39:47.635Z,88.8
2017-08-10T11:40:54.779Z,89
2017-08-10T11:42:02.270Z,88.1
2017-08-10T11:43:09.719Z,87.6
2017-08-10T11:44:17.366Z,87.3
2017-08-10T11:45:24.844Z,87.3
2017-08-10T11:46:32.331Z,87.5
2017-08-10T11:47:39.811Z,87.8
2017-08-10T11:48:47.585Z,87.8
2017-08-10T11:49:55.066Z,88.5
2017-08-10T11:51:02.548Z,88.1
2017-08-10T11:52:10.061Z,88.6
2017-08-10T11:54:39.594Z,86.9
2017-08-10T11:55:47.074Z,87
2017-08-10T11:56:54.560Z,86.5
2017-08-10T11:58:02.052Z,86.2
2017-08-10T11:59:09.529Z,87.1
2017-08-10T12:00:17.005Z,88.1
2017-08-10T12:01:24.493Z,87.6
2017-08-10T12:02:32.280Z,86.7
2017-08-10T12:03:39.757Z,85.9
2017-08-10T12:04:47.242Z,87
2017-08-10T12:05:54.396Z,88.7
2017-08-10T12:07:01.878Z,86.9
2017-08-10T12:08:09.709Z,86.4
2017-08-10T12:09:17.197Z,87.6
2017-08-10T12:10:24.673Z,87
2017-08-10T12:11:32.150Z,88.2
2017-08-10T12:12:39.310Z,87.8
2017-08-10T12:13:46.804Z,87.6
2017-08-10T12:14:54.280Z,87.8
2017-08-10T12:16:01.763Z,87.4
2017-08-10T12:17:09.246Z,88.5
2017-08-10T12:18:16.416Z,86.9
2017-08-10T12:19:23.916Z,87.8
2017-08-10T12:20:31.412Z,87.5
2017-08-10T12:21:38.904Z,87
2017-08-10T12:22:46.389Z,87.9
2017-08-10T12:23:53.866Z,88
2017-08-10T12:25:01.350Z,87.1
2017-08-10T12:26:08.835Z,87.6
2017-08-10T12:27:16.318Z,87.6
2017-08-10T12:28:23.827Z,88
2017-08-10T12:29:31.609Z,88.8
2017-08-10T12:30:39.095Z,88.5
2017-08-10T12:31:46.246Z,89.4
2017-08-10T12:32:53.722Z,87.1
2017-08-10T12:34:00.883Z,87.6
2017-08-10T12:35:08.719Z,88.6
2017-08-10T12:36:16.202Z,87.1
2017-08-10T12:37:23.683Z,87.3
2017-08-10T12:38:30.840Z,87
2017-08-10T12:39:38.326Z,86.6
2017-08-10T12:40:46.157Z,86.7
2017-08-10T12:41:53.319Z,87
2017-08-10T12:43:00.796Z,87.9
2017-08-10T12:44:08.274Z,86.2
2017-08-10T12:45:15.441Z,86.2
2017-08-10T12:46:23.267Z,86.2
2017-08-10T12:47:30.418Z,86.5
2017-08-10T12:48:37.896Z,87
2017-08-10T12:49:45.401Z,86.6
2017-08-10T12:50:52.885Z,86.6
2017-08-10T12:52:00.603Z,87.8
2017-08-10T12:53:08.082Z,87.4
2017-08-10T12:54:15.570Z,86.1
2017-08-10T12:55:22.713Z,85.6
2017-08-10T12:56:30.550Z,87
2017-08-10T12:57:38.032Z,86.1
2017-08-10T12:58:45.523Z,86.4
2017-08-10T12:59:53.007Z,85.6
2017-08-10T13:01:00.490Z,84.6
2017-08-10T13:02:08.544Z,85.4
2017-08-10T13:03:16.023Z,85.9
2017-08-10T13:04:23.505Z,86.5
2017-08-10T13:05:30.991Z,84.7
2017-08-10T13:06:38.467Z,85.4
2017-08-10T13:07:46.251Z,85.4
2017-08-10T13:08:53.743Z,85.6
2017-08-10T13:10:01.231Z,85.3
2017-08-10T13:11:08.386Z,85.1
2017-08-10T13:12:15.866Z,85.3
2017-08-10T13:13:23.648Z,85.4
2017-08-10T13:14:31.131Z,85.5
2017-08-10T13:15:38.609Z,86
2017-08-10T13:16:46.098Z,85.4
2017-08-10T13:17:53.247Z,85
2017-08-10T13:19:01.026Z,85.3
2017-08-10T13:20:08.174Z,85.3
2017-08-10T13:21:15.654Z,86.5
2017-08-10T13:22:23.134Z,85.4
2017-08-10T13:23:30.281Z,85.2
2017-08-10T13:24:38.064Z,86.3
2017-08-10T13:25:45.448Z,85.5
2017-08-10T13:26:52.950Z,86.4
2017-08-10T13:28:00.444Z,87.1
2017-08-10T13:29:07.930Z,86
2017-08-10T13:30:15.762Z,86.1
2017-08-10T13:31:23.252Z,86.4
2017-08-10T13:32:30.724Z,86.5
2017-08-10T13:33:38.207Z,85.8
2017-08-10T13:34:45.682Z,85.4
2017-08-10T13:35:53.159Z,87.1
2017-08-10T13:37:00.948Z,85.7
2017-08-10T13:38:08.490Z,86.3
2017-08-10T13:39:15.655Z,86.8
2017-08-10T13:40:23.138Z,87.3
2017-08-10T13:41:30.627Z,87.3
2017-08-10T13:42:38.408Z,87.7
2017-08-10T13:43:45.898Z,87.4
2017-08-10T13:44:53.378Z,87.4
2017-08-10T13:46:00.868Z,87
2017-08-10T13:47:08.347Z,87.4
2017-08-10T13:48:15.504Z,85.5
2017-08-10T13:49:22.979Z,85.4
2017-08-10T13:50:30.480Z,86.6
2017-08-10T13:51:37.978Z,85.7
2017-08-10T13:52:45.481Z,85.4
2017-08-10T13:53:54.237Z,86.1
2017-08-10T13:55:01.723Z,86.7
2017-08-10T13:56:09.205Z,87.3
2017-08-10T13:57:16.688Z,86.3
2017-08-10T13:58:24.163Z,86.4
2017-08-10T13:59:31.953Z,87.2
2017-08-10T14:00:39.679Z,87.7
2017-08-10T14:01:47.157Z,88
2017-08-10T14:02:54.646Z,87.2
2017-08-10T14:04:02.127Z,85.1
2017-08-10T14:05:09.907Z,86.1
2017-08-10T14:06:17.985Z,85.4
2017-08-10T14:07:25.698Z,86.3
2017-08-10T14:08:33.167Z,86
2017-08-10T14:09:40.644Z,86
2017-08-10T14:10:48.424Z,86.8
2017-08-10T14:11:55.909Z,86.1
2017-08-10T14:13:03.401Z,86.9
2017-08-10T14:14:10.885Z,87.3
2017-08-10T14:15:18.372Z,86.8
2017-08-10T14:16:25.840Z,86.9
2017-08-10T14:17:33.322Z,86.5
2017-08-10T14:19:48.163Z,86.9
2017-08-10T14:20:55.315Z,86.3
2017-08-10T14:22:03.094Z,87
2017-08-10T14:23:10.575Z,87.2
2017-08-10T14:24:17.724Z,87.5
2017-08-10T14:25:25.209Z,88.1
2017-08-10T14:26:32.686Z,87.8
2017-08-10T14:27:40.472Z,87.6
2017-08-10T14:28:47.622Z,87.5
2017-08-10T14:29:55.112Z,88.6
2017-08-10T14:31:02.590Z,87.1
2017-08-10T14:32:10.076Z,87.2
2017-08-10T14:33:17.855Z,86.8
2017-08-10T14:34:25.340Z,87.6
2017-08-10T14:35:32.823Z,87.5
2017-08-10T14:36:40.306Z,86.9
2017-08-10T14:37:47.789Z,87.6
2017-08-10T14:38:55.588Z,88.1
2017-08-10T14:40:03.103Z,87.1
2017-08-10T14:41:10.255Z,87.4
2017-08-10T14:42:17.738Z,88.1
2017-08-10T14:43:25.219Z,87.5
2017-08-10T14:44:33.047Z,87.7
2017-08-10T14:45:40.542Z,86.5
2017-08-10T14:46:48.044Z,87.5
2017-08-10T14:47:55.160Z,87.5
2017-08-10T14:49:02.641Z,88.5
2017-08-10T14:50:10.121Z,87.6
2017-08-10T14:51:17.273Z,87.5
2017-08-10T14:52:24.752Z,87.8
2017-08-10T14:53:31.963Z,88
2017-08-10T14:54:39.439Z,88.5
2017-08-10T14:55:47.272Z,86.6
2017-08-10T14:56:54.755Z,87.5
2017-08-10T14:58:02.241Z,87.5
2017-08-10T14:59:09.735Z,87.4
2017-08-10T15:00:17.222Z,87.9
2017-08-10T15:01:25.056Z,88.6
2017-08-10T15:02:32.215Z,87.4
2017-08-10T15:03:39.699Z,87.2
2017-08-10T15:04:46.858Z,87.3
2017-08-10T15:05:54.354Z,87.2
2017-08-10T15:07:02.140Z,87